sensor_id;sensor_type;location;lat;lon;timestamp;pressure;altitude;pressure_sealevel;temperature;humidity
11985;BME280;6052;53.246;10.368;2023-04-03T00:00:47;102794.63;;;6.76;79.37
11985;BME280;6052;53.246;10.368;2023-04-03T00:03:17;102791.16;;;6.76;79.03
11985;BME280;6052;53.246;10.368;2023-04-03T00:05:46;102795.31;;;6.78;79.23
11985;BME280;6052;53.246;10.368;2023-04-03T00:08:16;102796.47;;;6.76;79.01
11985;BME280;6052;53.246;10.368;2023-04-03T00:10:46;102788.81;;;6.81;79.42
11985;BME280;6052;53.246;10.368;2023-04-03T00:13:18;102799.31;;;6.82;79.04
11985;BME280;6052;53.246;10.368;2023-04-03T00:15:50;102796.13;;;6.79;79.33
11985;BME280;6052;53.246;10.368;2023-04-03T00:18:21;102798.41;;;6.66;79.27
11985;BME280;6052;53.246;10.368;2023-04-03T00:20:52;102806.75;;;6.63;79.47
11985;BME280;6052;53.246;10.368;2023-04-03T00:23:23;102803.72;;;6.58;79.49
11985;BME280;6052;53.246;10.368;2023-04-03T00:25:56;102802.00;;;6.49;79.80
11985;BME280;6052;53.246;10.368;2023-04-03T00:28:28;102804.00;;;6.47;79.95
11985;BME280;6052;53.246;10.368;2023-04-03T00:31:00;102804.69;;;6.23;79.86
11985;BME280;6052;53.246;10.368;2023-04-03T00:33:29;102809.84;;;6.25;80.32
11985;BME280;6052;53.246;10.368;2023-04-03T00:35:59;102806.81;;;6.20;80.21
11985;BME280;6052;53.246;10.368;2023-04-03T00:38:28;102807.13;;;6.17;80.29
11985;BME280;6052;53.246;10.368;2023-04-03T00:40:58;102809.97;;;6.15;80.56
11985;BME280;6052;53.246;10.368;2023-04-03T00:43:29;102813.06;;;6.03;81.20
11985;BME280;6052;53.246;10.368;2023-04-03T00:46:02;102813.72;;;6.05;80.90
11985;BME280;6052;53.246;10.368;2023-04-03T00:48:34;102814.47;;;6.15;80.62
11985;BME280;6052;53.246;10.368;2023-04-03T00:51:07;102816.88;;;6.00;80.84
11985;BME280;6052;53.246;10.368;2023-04-03T00:53:43;102816.13;;;6.16;80.30
11985;BME280;6052;53.246;10.368;2023-04-03T00:56:15;102816.22;;;6.06;80.79
11985;BME280;6052;53.246;10.368;2023-04-03T00:58:49;102813.66;;;5.97;80.92
11985;BME280;6052;53.246;10.368;2023-04-03T01:01:24;102814.38;;;6.07;80.39
11985;BME280;6052;53.246;10.368;2023-04-03T01:03:54;102822.97;;;5.93;80.65
11985;BME280;6052;53.246;10.368;2023-04-03T01:06:26;102828.06;;;5.86;80.90
11985;BME280;6052;53.246;10.368;2023-04-03T01:09:00;102827.09;;;5.78;80.78
11985;BME280;6052;53.246;10.368;2023-04-03T01:11:33;102821.28;;;5.92;80.63
11985;BME280;6052;53.246;10.368;2023-04-03T01:14:02;102820.81;;;5.96;80.94
11985;BME280;6052;53.246;10.368;2023-04-03T01:16:35;102827.34;;;6.02;80.34
11985;BME280;6052;53.246;10.368;2023-04-03T01:19:07;102820.19;;;6.02;80.32
11985;BME280;6052;53.246;10.368;2023-04-03T01:21:56;102821.09;;;6.11;79.84
11985;BME280;6052;53.246;10.368;2023-04-03T01:24:34;102818.59;;;5.92;79.92
11985;BME280;6052;53.246;10.368;2023-04-03T01:27:07;102828.75;;;5.88;79.78
11985;BME280;6052;53.246;10.368;2023-04-03T01:29:40;102820.53;;;5.82;80.19
11985;BME280;6052;53.246;10.368;2023-04-03T01:32:12;102827.53;;;5.83;80.07
11985;BME280;6052;53.246;10.368;2023-04-03T01:34:42;102821.72;;;5.70;80.48
11985;BME280;6052;53.246;10.368;2023-04-03T01:37:11;102828.81;;;5.79;80.25
11985;BME280;6052;53.246;10.368;2023-04-03T01:39:40;102835.38;;;5.84;80.17
11985;BME280;6052;53.246;10.368;2023-04-03T01:42:10;102821.22;;;5.84;80.14
11985;BME280;6052;53.246;10.368;2023-04-03T01:44:39;102825.16;;;5.97;79.90
11985;BME280;6052;53.246;10.368;2023-04-03T01:47:08;102831.38;;;6.06;79.49
11985;BME280;6052;53.246;10.368;2023-04-03T01:49:40;102830.22;;;6.08;79.67
11985;BME280;6052;53.246;10.368;2023-04-03T01:52:22;102827.78;;;6.15;79.30
11985;BME280;6052;53.246;10.368;2023-04-03T01:54:52;102833.59;;;6.10;79.13
11985;BME280;6052;53.246;10.368;2023-04-03T01:57:21;102829.44;;;6.16;78.65
11985;BME280;6052;53.246;10.368;2023-04-03T01:59:50;102835.72;;;6.07;78.77
11985;BME280;6052;53.246;10.368;2023-04-03T02:02:20;102835.41;;;6.10;78.83
11985;BME280;6052;53.246;10.368;2023-04-03T02:04:52;102836.03;;;6.04;78.81
11985;BME280;6052;53.246;10.368;2023-04-03T02:07:21;102835.63;;;6.16;78.26
11985;BME280;6052;53.246;10.368;2023-04-03T02:09:50;102837.47;;;5.98;78.52
11985;BME280;6052;53.246;10.368;2023-04-03T02:12:20;102831.78;;;5.93;78.76
11985;BME280;6052;53.246;10.368;2023-04-03T02:14:50;102836.81;;;5.96;79.00
11985;BME280;6052;53.246;10.368;2023-04-03T02:17:19;102825.06;;;5.89;78.96
11985;BME280;6052;53.246;10.368;2023-04-03T02:19:54;102829.97;;;5.94;79.08
11985;BME280;6052;53.246;10.368;2023-04-03T02:22:25;102835.03;;;6.05;79.30
11985;BME280;6052;53.246;10.368;2023-04-03T02:24:54;102826.91;;;6.06;79.13
11985;BME280;6052;53.246;10.368;2023-04-03T02:27:23;102829.34;;;6.00;79.22
11985;BME280;6052;53.246;10.368;2023-04-03T02:29:55;102835.06;;;5.87;79.48
11985;BME280;6052;53.246;10.368;2023-04-03T02:32:26;102831.75;;;5.76;79.96
11985;BME280;6052;53.246;10.368;2023-04-03T02:34:58;102833.75;;;5.74;80.10
11985;BME280;6052;53.246;10.368;2023-04-03T02:37:28;102836.41;;;5.74;79.80
11985;BME280;6052;53.246;10.368;2023-04-03T02:39:57;102834.06;;;5.71;79.82
11985;BME280;6052;53.246;10.368;2023-04-03T02:42:27;102834.34;;;5.68;79.61
11985;BME280;6052;53.246;10.368;2023-04-03T02:44:56;102835.44;;;5.75;79.64
11985;BME280;6052;53.246;10.368;2023-04-03T02:47:28;102837.25;;;5.74;79.53
11985;BME280;6052;53.246;10.368;2023-04-03T02:50:00;102835.88;;;5.70;79.80
11985;BME280;6052;53.246;10.368;2023-04-03T02:52:30;102838.00;;;5.67;80.01
11985;BME280;6052;53.246;10.368;2023-04-03T02:54:59;102839.47;;;5.61;79.88
11985;BME280;6052;53.246;10.368;2023-04-03T02:57:29;102838.63;;;5.61;80.07
11985;BME280;6052;53.246;10.368;2023-04-03T02:59:58;102843.41;;;5.57;79.93
11985;BME280;6052;53.246;10.368;2023-04-03T03:02:28;102845.09;;;5.58;79.83
11985;BME280;6052;53.246;10.368;2023-04-03T03:05:02;102845.47;;;5.46;79.75
11985;BME280;6052;53.246;10.368;2023-04-03T03:07:32;102843.97;;;5.34;80.03
11985;BME280;6052;53.246;10.368;2023-04-03T03:10:01;102835.47;;;5.30;80.38
11985;BME280;6052;53.246;10.368;2023-04-03T03:12:31;102837.31;;;5.30;80.97
11985;BME280;6052;53.246;10.368;2023-04-03T03:15:00;102838.53;;;5.35;80.85
11985;BME280;6052;53.246;10.368;2023-04-03T03:17:31;102844.84;;;5.52;80.53
11985;BME280;6052;53.246;10.368;2023-04-03T03:20:06;102835.56;;;5.56;80.02
11985;BME280;6052;53.246;10.368;2023-04-03T03:22:36;102837.78;;;5.60;79.65
11985;BME280;6052;53.246;10.368;2023-04-03T03:25:05;102849.50;;;5.50;79.76
11985;BME280;6052;53.246;10.368;2023-04-03T03:27:35;102843.22;;;5.41;79.93
11985;BME280;6052;53.246;10.368;2023-04-03T03:30:06;102840.94;;;5.46;79.91
11985;BME280;6052;53.246;10.368;2023-04-03T03:32:36;102842.19;;;5.52;79.69
11985;BME280;6052;53.246;10.368;2023-04-03T03:35:08;102847.59;;;5.42;80.07
11985;BME280;6052;53.246;10.368;2023-04-03T03:37:37;102841.28;;;5.43;79.78
11985;BME280;6052;53.246;10.368;2023-04-03T03:40:08;102843.78;;;5.45;79.82
11985;BME280;6052;53.246;10.368;2023-04-03T03:42:39;102841.19;;;5.35;79.61
11985;BME280;6052;53.246;10.368;2023-04-03T03:45:10;102834.34;;;5.33;80.02
11985;BME280;6052;53.246;10.368;2023-04-03T03:47:39;102838.22;;;5.38;79.81
11985;BME280;6052;53.246;10.368;2023-04-03T03:50:11;102845.69;;;5.35;79.78
11985;BME280;6052;53.246;10.368;2023-04-03T03:52:41;102847.50;;;5.34;79.75
11985;BME280;6052;53.246;10.368;2023-04-03T03:55:10;102838.53;;;5.35;79.50
11985;BME280;6052;53.246;10.368;2023-04-03T03:57:40;102840.50;;;5.33;79.70
11985;BME280;6052;53.246;10.368;2023-04-03T04:00:10;102841.19;;;5.35;79.72
11985;BME280;6052;53.246;10.368;2023-04-03T04:02:40;102842.41;;;5.41;79.60
11985;BME280;6052;53.246;10.368;2023-04-03T04:05:12;102838.34;;;5.19;79.71
11985;BME280;6052;53.246;10.368;2023-04-03T04:07:41;102841.13;;;5.27;79.85
11985;BME280;6052;53.246;10.368;2023-04-03T04:10:11;102845.28;;;5.12;79.96
11985;BME280;6052;53.246;10.368;2023-04-03T04:12:43;102851.00;;;5.35;79.89
11985;BME280;6052;53.246;10.368;2023-04-03T04:15:12;102851.41;;;5.40;79.43
11985;BME280;6052;53.246;10.368;2023-04-03T04:17:41;102841.94;;;5.28;79.91
11985;BME280;6052;53.246;10.368;2023-04-03T04:20:15;102848.75;;;5.13;79.85
11985;BME280;6052;53.246;10.368;2023-04-03T04:22:45;102848.53;;;5.24;79.87
11985;BME280;6052;53.246;10.368;2023-04-03T04:25:14;102856.69;;;5.22;79.66
11985;BME280;6052;53.246;10.368;2023-04-03T04:27:44;102852.59;;;5.28;79.75
11985;BME280;6052;53.246;10.368;2023-04-03T04:30:13;102856.63;;;5.32;79.47
11985;BME280;6052;53.246;10.368;2023-04-03T04:32:48;102859.28;;;5.32;79.42
11985;BME280;6052;53.246;10.368;2023-04-03T04:35:20;102868.19;;;5.40;79.38
11985;BME280;6052;53.246;10.368;2023-04-03T04:37:49;102862.81;;;5.32;79.31
11985;BME280;6052;53.246;10.368;2023-04-03T04:40:19;102868.19;;;5.40;79.12
11985;BME280;6052;53.246;10.368;2023-04-03T04:42:49;102875.38;;;5.40;79.13
11985;BME280;6052;53.246;10.368;2023-04-03T04:45:18;102873.13;;;5.35;79.19
11985;BME280;6052;53.246;10.368;2023-04-03T04:47:47;102876.09;;;5.32;79.18
11985;BME280;6052;53.246;10.368;2023-04-03T04:50:21;102877.47;;;5.36;79.00
11985;BME280;6052;53.246;10.368;2023-04-03T04:52:51;102876.69;;;5.26;79.18
11985;BME280;6052;53.246;10.368;2023-04-03T04:55:20;102885.31;;;5.38;79.44
11985;BME280;6052;53.246;10.368;2023-04-03T04:57:49;102878.91;;;5.31;79.10
11985;BME280;6052;53.246;10.368;2023-04-03T05:00:21;102882.97;;;5.35;79.30
11985;BME280;6052;53.246;10.368;2023-04-03T05:02:51;102886.06;;;5.30;79.07
11985;BME280;6052;53.246;10.368;2023-04-03T05:05:23;102895.16;;;5.28;79.10
11985;BME280;6052;53.246;10.368;2023-04-03T05:07:52;102891.22;;;5.32;79.38
11985;BME280;6052;53.246;10.368;2023-04-03T05:10:21;102896.75;;;5.21;79.19
11985;BME280;6052;53.246;10.368;2023-04-03T05:12:51;102896.75;;;5.21;79.47
11985;BME280;6052;53.246;10.368;2023-04-03T05:15:21;102895.50;;;5.25;78.93
11985;BME280;6052;53.246;10.368;2023-04-03T05:17:50;102899.44;;;5.21;79.26
11985;BME280;6052;53.246;10.368;2023-04-03T05:20:19;102902.63;;;5.24;79.29
11985;BME280;6052;53.246;10.368;2023-04-03T05:22:52;102895.16;;;5.28;79.48
11985;BME280;6052;53.246;10.368;2023-04-03T05:25:21;102896.38;;;5.16;79.63
11985;BME280;6052;53.246;10.368;2023-04-03T05:27:52;102899.13;;;5.24;79.83
11985;BME280;6052;53.246;10.368;2023-04-03T05:30:22;102903.91;;;5.20;79.47
11985;BME280;6052;53.246;10.368;2023-04-03T05:32:51;102906.41;;;5.22;79.69
11985;BME280;6052;53.246;10.368;2023-04-03T05:35:21;102897.44;;;5.23;79.58
11985;BME280;6052;53.246;10.368;2023-04-03T05:37:53;102907.28;;;5.22;79.99
11985;BME280;6052;53.246;10.368;2023-04-03T05:40:22;102908.41;;;5.20;80.03
11985;BME280;6052;53.246;10.368;2023-04-03T05:42:52;102918.22;;;5.10;80.05
11985;BME280;6052;53.246;10.368;2023-04-03T05:45:21;102911.50;;;5.15;80.33
11985;BME280;6052;53.246;10.368;2023-04-03T05:47:51;102914.03;;;5.07;80.99
11985;BME280;6052;53.246;10.368;2023-04-03T05:50:21;102924.00;;;5.05;81.28
11985;BME280;6052;53.246;10.368;2023-04-03T05:52:56;102927.69;;;4.95;81.75
11985;BME280;6052;53.246;10.368;2023-04-03T05:55:26;102923.75;;;4.99;81.88
11985;BME280;6052;53.246;10.368;2023-04-03T05:57:55;102931.78;;;4.89;82.41
11985;BME280;6052;53.246;10.368;2023-04-03T06:00:24;102930.38;;;4.85;82.71
11985;BME280;6052;53.246;10.368;2023-04-03T06:02:54;102934.84;;;4.85;82.99
11985;BME280;6052;53.246;10.368;2023-04-03T06:05:23;102936.50;;;4.95;82.79
11985;BME280;6052;53.246;10.368;2023-04-03T06:07:55;102934.69;;;4.96;82.43
11985;BME280;6052;53.246;10.368;2023-04-03T06:10:25;102928.16;;;4.81;83.25
11985;BME280;6052;53.246;10.368;2023-04-03T06:12:54;102939.91;;;4.88;84.34
11985;BME280;6052;53.246;10.368;2023-04-03T06:15:24;102942.28;;;4.81;84.83
11985;BME280;6052;53.246;10.368;2023-04-03T06:17:53;102934.16;;;4.83;84.62
11985;BME280;6052;53.246;10.368;2023-04-03T06:20:23;102936.69;;;4.75;85.01
11985;BME280;6052;53.246;10.368;2023-04-03T06:22:52;102936.28;;;4.79;85.32
11985;BME280;6052;53.246;10.368;2023-04-03T06:25:24;102939.84;;;4.97;84.54
11985;BME280;6052;53.246;10.368;2023-04-03T06:27:54;102937.09;;;4.80;85.84
11985;BME280;6052;53.246;10.368;2023-04-03T06:30:23;102943.72;;;4.76;86.50
11985;BME280;6052;53.246;10.368;2023-04-03T06:32:53;102947.59;;;4.91;87.08
11985;BME280;6052;53.246;10.368;2023-04-03T06:35:23;102945.25;;;4.78;88.24
11985;BME280;6052;53.246;10.368;2023-04-03T06:37:54;102943.63;;;4.95;87.11
11985;BME280;6052;53.246;10.368;2023-04-03T06:40:26;102943.50;;;4.96;87.03
11985;BME280;6052;53.246;10.368;2023-04-03T06:42:56;102952.59;;;5.03;86.73
11985;BME280;6052;53.246;10.368;2023-04-03T06:45:25;102948.22;;;5.02;87.00
11985;BME280;6052;53.246;10.368;2023-04-03T06:47:54;102956.19;;;5.12;86.23
11985;BME280;6052;53.246;10.368;2023-04-03T06:50:24;102959.19;;;4.99;88.00
11985;BME280;6052;53.246;10.368;2023-04-03T06:52:54;102965.31;;;5.00;87.86
11985;BME280;6052;53.246;10.368;2023-04-03T06:55:26;102965.50;;;4.89;89.18
11985;BME280;6052;53.246;10.368;2023-04-03T06:57:56;102966.25;;;5.18;89.69
11985;BME280;6052;53.246;10.368;2023-04-03T07:00:25;102963.06;;;5.14;89.23
11985;BME280;6052;53.246;10.368;2023-04-03T07:02:55;102963.91;;;5.05;91.44
11985;BME280;6052;53.246;10.368;2023-04-03T07:05:25;102970.91;;;5.16;90.51
11985;BME280;6052;53.246;10.368;2023-04-03T07:07:55;102970.91;;;5.16;90.33
11985;BME280;6052;53.246;10.368;2023-04-03T07:10:27;102970.19;;;5.14;90.16
11985;BME280;6052;53.246;10.368;2023-04-03T07:12:57;102969.66;;;5.10;90.52
11985;BME280;6052;53.246;10.368;2023-04-03T07:15:28;102974.31;;;4.99;90.50
11985;BME280;6052;53.246;10.368;2023-04-03T07:17:57;102976.50;;;5.13;90.16
11985;BME280;6052;53.246;10.368;2023-04-03T07:20:31;102975.69;;;5.03;90.57
11985;BME280;6052;53.246;10.368;2023-04-03T07:23:00;102976.69;;;5.02;90.07
11985;BME280;6052;53.246;10.368;2023-04-03T07:25:32;102979.22;;;5.03;91.02
11985;BME280;6052;53.246;10.368;2023-04-03T07:28:02;102980.97;;;5.22;92.00
11985;BME280;6052;53.246;10.368;2023-04-03T07:30:31;102992.19;;;5.16;91.51
11985;BME280;6052;53.246;10.368;2023-04-03T07:33:01;102981.97;;;5.11;92.42
11985;BME280;6052;53.246;10.368;2023-04-03T07:35:30;102985.59;;;5.20;91.47
11985;BME280;6052;53.246;10.368;2023-04-03T07:38:00;102986.06;;;5.06;90.80
11985;BME280;6052;53.246;10.368;2023-04-03T07:40:32;102994.00;;;5.25;93.54
11985;BME280;6052;53.246;10.368;2023-04-03T07:43:01;102986.41;;;5.30;91.41
11985;BME280;6052;53.246;10.368;2023-04-03T07:45:31;102989.84;;;5.40;91.97
11985;BME280;6052;53.246;10.368;2023-04-03T07:48:04;102989.53;;;5.43;90.61
11985;BME280;6052;53.246;10.368;2023-04-03T07:50:33;102986.63;;;5.36;89.40
11985;BME280;6052;53.246;10.368;2023-04-03T07:53:03;102991.78;;;5.47;89.80
11985;BME280;6052;53.246;10.368;2023-04-03T07:55:35;102988.94;;;5.49;88.79
11985;BME280;6052;53.246;10.368;2023-04-03T07:58:09;102993.84;;;5.53;89.04
11985;BME280;6052;53.246;10.368;2023-04-03T08:00:39;102991.97;;;5.63;88.57
11985;BME280;6052;53.246;10.368;2023-04-03T08:03:10;102996.81;;;5.77;89.50
11985;BME280;6052;53.246;10.368;2023-04-03T08:05:41;102996.09;;;5.75;88.91
11985;BME280;6052;53.246;10.368;2023-04-03T08:08:14;102998.84;;;5.93;89.79
11985;BME280;6052;53.246;10.368;2023-04-03T08:10:50;102988.97;;;6.03;91.02
11985;BME280;6052;53.246;10.368;2023-04-03T08:13:20;102992.97;;;6.07;90.20
11985;BME280;6052;53.246;10.368;2023-04-03T08:15:50;102994.88;;;6.14;88.69
11985;BME280;6052;53.246;10.368;2023-04-03T08:18:20;102996.66;;;6.23;89.07
11985;BME280;6052;53.246;10.368;2023-04-03T08:20:51;102992.69;;;6.27;87.35
11985;BME280;6052;53.246;10.368;2023-04-03T08:23:21;102988.50;;;6.25;86.37
11985;BME280;6052;53.246;10.368;2023-04-03T08:25:53;102989.75;;;6.30;86.02
11985;BME280;6052;53.246;10.368;2023-04-03T08:28:22;102990.03;;;6.45;87.04
11985;BME280;6052;53.246;10.368;2023-04-03T08:30:51;102987.69;;;6.42;86.41
11985;BME280;6052;53.246;10.368;2023-04-03T08:33:21;102984.25;;;6.49;87.30
11985;BME280;6052;53.246;10.368;2023-04-03T08:35:50;102993.38;;;6.64;88.98
11985;BME280;6052;53.246;10.368;2023-04-03T08:38:20;102991.84;;;6.62;82.89
11985;BME280;6052;53.246;10.368;2023-04-03T08:41:02;102987.78;;;6.75;83.20
11985;BME280;6052;53.246;10.368;2023-04-03T08:43:37;102988.81;;;6.82;84.25
11985;BME280;6052;53.246;10.368;2023-04-03T08:46:14;102992.97;;;6.77;82.19
11985;BME280;6052;53.246;10.368;2023-04-03T08:48:45;102990.19;;;6.86;80.85
11985;BME280;6052;53.246;10.368;2023-04-03T08:51:17;102977.53;;;6.88;78.72
11985;BME280;6052;53.246;10.368;2023-04-03T08:53:54;102983.06;;;6.95;78.88
11985;BME280;6052;53.246;10.368;2023-04-03T08:56:29;102985.06;;;6.93;75.64
11985;BME280;6052;53.246;10.368;2023-04-03T08:59:01;102975.31;;;7.09;75.90
11985;BME280;6052;53.246;10.368;2023-04-03T09:01:35;102979.72;;;7.18;75.06
11985;BME280;6052;53.246;10.368;2023-04-03T09:04:10;102978.03;;;7.17;75.70
11985;BME280;6052;53.246;10.368;2023-04-03T09:06:42;102971.56;;;7.28;74.43
11985;BME280;6052;53.246;10.368;2023-04-03T09:09:18;102976.47;;;7.32;75.87
11985;BME280;6052;53.246;10.368;2023-04-03T09:12:02;102972.34;;;7.46;76.50
11985;BME280;6052;53.246;10.368;2023-04-03T09:14:38;102971.78;;;7.34;74.06
11985;BME280;6052;53.246;10.368;2023-04-03T09:17:14;102973.44;;;7.27;72.95
11985;BME280;6052;53.246;10.368;2023-04-03T09:19:51;102966.88;;;7.63;74.90
11985;BME280;6052;53.246;10.368;2023-04-03T09:22:26;102969.09;;;7.76;75.46
11985;BME280;6052;53.246;10.368;2023-04-03T09:25:02;102970.41;;;7.72;74.97
11985;BME280;6052;53.246;10.368;2023-04-03T09:27:37;102973.44;;;7.69;75.53
11985;BME280;6052;53.246;10.368;2023-04-03T09:30:13;102966.28;;;7.85;73.67
11985;BME280;6052;53.246;10.368;2023-04-03T09:32:45;102960.13;;;7.93;74.88
11985;BME280;6052;53.246;10.368;2023-04-03T09:35:23;102965.31;;;8.02;77.69
11985;BME280;6052;53.246;10.368;2023-04-03T09:38:18;102962.81;;;7.93;74.06
11985;BME280;6052;53.246;10.368;2023-04-03T09:40:50;102955.16;;;8.14;74.78
11985;BME280;6052;53.246;10.368;2023-04-03T09:43:25;102952.47;;;8.14;73.54
11985;BME280;6052;53.246;10.368;2023-04-03T09:45:56;102954.78;;;8.17;73.89
11985;BME280;6052;53.246;10.368;2023-04-03T09:48:51;102951.19;;;8.34;75.92
11985;BME280;6052;53.246;10.368;2023-04-03T09:51:34;102948.31;;;8.27;72.54
11985;BME280;6052;53.246;10.368;2023-04-03T09:54:24;102942.31;;;8.25;73.62
11985;BME280;6052;53.246;10.368;2023-04-03T09:56:55;102943.78;;;8.20;71.20
11985;BME280;6052;53.246;10.368;2023-04-03T09:59:30;102948.19;;;8.37;72.39
11985;BME280;6052;53.246;10.368;2023-04-03T10:02:02;102943.13;;;8.18;69.81
11985;BME280;6052;53.246;10.368;2023-04-03T10:04:39;102941.78;;;8.46;70.24
11985;BME280;6052;53.246;10.368;2023-04-03T10:07:27;102937.09;;;8.72;70.81
11985;BME280;6052;53.246;10.368;2023-04-03T10:09:58;102932.94;;;8.61;70.25
11985;BME280;6052;53.246;10.368;2023-04-03T10:12:30;102939.13;;;8.62;69.22
11985;BME280;6052;53.246;10.368;2023-04-03T10:15:03;102926.59;;;8.46;66.03
11985;BME280;6052;53.246;10.368;2023-04-03T10:17:39;102926.09;;;8.43;65.84
11985;BME280;6052;53.246;10.368;2023-04-03T10:20:27;102926.06;;;8.27;65.43
11985;BME280;6052;53.246;10.368;2023-04-03T10:23:14;102919.03;;;8.18;64.57
11985;BME280;6052;53.246;10.368;2023-04-03T10:25:51;102926.91;;;8.43;65.70
11985;BME280;6052;53.246;10.368;2023-04-03T10:28:31;102913.19;;;8.38;64.26
11985;BME280;6052;53.246;10.368;2023-04-03T10:31:12;102909.03;;;8.44;64.80
11985;BME280;6052;53.246;10.368;2023-04-03T10:33:55;102904.34;;;8.30;64.40
11985;BME280;6052;53.246;10.368;2023-04-03T10:36:34;102901.66;;;8.30;63.88
11985;BME280;6052;53.246;10.368;2023-04-03T10:39:12;102905.00;;;8.48;64.67
11985;BME280;6052;53.246;10.368;2023-04-03T10:41:52;102906.03;;;8.47;64.84
11985;BME280;6052;53.246;10.368;2023-04-03T10:44:52;102905.63;;;8.66;65.43
11985;BME280;6052;53.246;10.368;2023-04-03T10:47:34;102899.47;;;8.65;65.79
11985;BME280;6052;53.246;10.368;2023-04-03T10:50:25;102892.72;;;8.77;65.87
11985;BME280;6052;53.246;10.368;2023-04-03T10:53:01;102899.81;;;8.46;61.72
11985;BME280;6052;53.246;10.368;2023-04-03T10:55:36;102894.91;;;8.74;63.80
11985;BME280;6052;53.246;10.368;2023-04-03T10:58:15;102891.91;;;8.77;64.69
11985;BME280;6052;53.246;10.368;2023-04-03T11:00:49;102892.56;;;8.79;64.42
11985;BME280;6052;53.246;10.368;2023-04-03T11:03:29;102885.03;;;8.82;63.79
11985;BME280;6052;53.246;10.368;2023-04-03T11:06:02;102877.84;;;8.75;64.63
11985;BME280;6052;53.246;10.368;2023-04-03T11:08:38;102881.91;;;8.71;62.95
11985;BME280;6052;53.246;10.368;2023-04-03T11:11:13;102876.41;;;8.40;62.21
11985;BME280;6052;53.246;10.368;2023-04-03T11:13:49;102865.16;;;8.61;61.42
11985;BME280;6052;53.246;10.368;2023-04-03T11:16:23;102858.63;;;8.71;62.23
11985;BME280;6052;53.246;10.368;2023-04-03T11:19:01;102861.53;;;8.38;61.45
11985;BME280;6052;53.246;10.368;2023-04-03T11:21:33;102860.84;;;8.52;62.09
11985;BME280;6052;53.246;10.368;2023-04-03T11:24:05;102857.69;;;8.24;61.36
11985;BME280;6052;53.246;10.368;2023-04-03T11:26:42;102865.41;;;8.35;61.85
11985;BME280;6052;53.246;10.368;2023-04-03T11:29:15;102862.84;;;8.50;61.90
11985;BME280;6052;53.246;10.368;2023-04-03T11:32:09;102869.88;;;8.51;63.30
11985;BME280;6052;53.246;10.368;2023-04-03T11:34:45;102864.19;;;8.46;62.72
11985;BME280;6052;53.246;10.368;2023-04-03T11:37:21;102855.50;;;8.52;61.79
11985;BME280;6052;53.246;10.368;2023-04-03T11:39:56;102849.78;;;8.55;61.12
11985;BME280;6052;53.246;10.368;2023-04-03T11:42:32;102851.81;;;8.45;60.70
11985;BME280;6052;53.246;10.368;2023-04-03T11:45:29;102849.09;;;8.61;62.16
11985;BME280;6052;53.246;10.368;2023-04-03T11:48:02;102847.75;;;8.65;61.92
11985;BME280;6052;53.246;10.368;2023-04-03T11:50:52;102847.72;;;8.81;63.73
11985;BME280;6052;53.246;10.368;2023-04-03T11:53:31;102852.63;;;8.69;63.64
11985;BME280;6052;53.246;10.368;2023-04-03T12:01:48;102849.22;;;8.83;62.62
11985;BME280;6052;53.246;10.368;2023-04-03T12:04:19;102839.53;;;8.74;62.78
11985;BME280;6052;53.246;10.368;2023-04-03T12:09:58;102829.94;;;8.88;62.27
11985;BME280;6052;53.246;10.368;2023-04-03T12:12:34;102831.31;;;8.84;62.55
11985;BME280;6052;53.246;10.368;2023-04-03T12:15:23;102828.06;;;8.58;62.60
11985;BME280;6052;53.246;10.368;2023-04-03T12:17:53;102827.84;;;8.67;62.73
11985;BME280;6052;53.246;10.368;2023-04-03T12:20:52;102828.38;;;8.55;62.68
11985;BME280;6052;53.246;10.368;2023-04-03T12:23:27;102831.25;;;8.45;63.06
11985;BME280;6052;53.246;10.368;2023-04-03T12:26:19;102827.56;;;8.46;62.97
11985;BME280;6052;53.246;10.368;2023-04-03T12:28:58;102823.16;;;8.69;63.23
11985;BME280;6052;53.246;10.368;2023-04-03T12:31:42;102817.56;;;8.40;61.42
11985;BME280;6052;53.246;10.368;2023-04-03T12:34:26;102823.00;;;8.63;61.62
11985;BME280;6052;53.246;10.368;2023-04-03T12:37:07;102816.78;;;8.70;62.43
11985;BME280;6052;53.246;10.368;2023-04-03T12:39:52;102813.06;;;8.33;62.12
11985;BME280;6052;53.246;10.368;2023-04-03T12:42:40;102818.34;;;8.57;61.23
11985;BME280;6052;53.246;10.368;2023-04-03T12:45:19;102805.06;;;8.71;63.08
11985;BME280;6052;53.246;10.368;2023-04-03T12:47:51;102811.50;;;8.46;62.17
11985;BME280;6052;53.246;10.368;2023-04-03T12:50:23;102809.69;;;8.47;62.08
11985;BME280;6052;53.246;10.368;2023-04-03T12:52:57;102803.66;;;8.45;61.05
11985;BME280;6052;53.246;10.368;2023-04-03T12:55:31;102807.66;;;8.49;62.43
11985;BME280;6052;53.246;10.368;2023-04-03T12:58:13;102805.63;;;8.59;61.43
11985;BME280;6052;53.246;10.368;2023-04-03T13:00:44;102796.03;;;8.72;61.45
11985;BME280;6052;53.246;10.368;2023-04-03T13:03:22;102796.09;;;8.64;61.89
11985;BME280;6052;53.246;10.368;2023-04-03T13:05:56;102796.03;;;8.72;62.13
11985;BME280;6052;53.246;10.368;2023-04-03T13:08:28;102789.72;;;8.65;61.42
11985;BME280;6052;53.246;10.368;2023-04-03T13:11:02;102795.72;;;8.67;61.15
11985;BME280;6052;53.246;10.368;2023-04-03T13:13:32;102796.41;;;8.61;59.60
11985;BME280;6052;53.246;10.368;2023-04-03T13:16:08;102786.34;;;8.63;59.36
11985;BME280;6052;53.246;10.368;2023-04-03T13:18:40;102785.84;;;8.76;59.65
11985;BME280;6052;53.246;10.368;2023-04-03T13:21:13;102783.56;;;8.87;59.80
11985;BME280;6052;53.246;10.368;2023-04-03T13:23:45;102785.38;;;8.95;60.21
11985;BME280;6052;53.246;10.368;2023-04-03T13:26:28;102779.09;;;8.80;60.61
11985;BME280;6052;53.246;10.368;2023-04-03T13:29:00;102783.09;;;8.84;60.65
11985;BME280;6052;53.246;10.368;2023-04-03T13:31:32;102783.56;;;8.87;61.02
11985;BME280;6052;53.246;10.368;2023-04-03T13:34:07;102779.72;;;8.51;59.47
11985;BME280;6052;53.246;10.368;2023-04-03T13:36:38;102781.75;;;8.41;60.18
11985;BME280;6052;53.246;10.368;2023-04-03T13:39:23;102781.53;;;8.59;60.92